MV Fenella — A8YX7 — position and weather

sailwx.info

Track history (hours):
 
Tides and Currents Weather Stations Pressure Air Temp Water Temp Dewpoint Dewpoint Depression Visibility Wind Speed Wind Dir Waves Ship Positions

MV Fenella

Last reported at 2015-Feb-20 02:29 UTC. Time now 2015-Mar-04 07:07 UTC.
Position N 24°37' W 114°08'.
Warning: this ship's position is 12 days out of date.

Length 159 m; draft 6.7 m.

Type: Cargo ship. MMSI: 636092234.

Date/timePositionNaut miles runAvg speedWind from/ knotsBaromVisibWave heightAir tempDewpointWater temp
2015-Feb-20 02:29N 24°37' W 114°08'1814.4
2015-Feb-20 01:15N 24°49' W 114°23'37013.8
2015-Feb-18 22:30N 28°36' W 119°50'1313.4
2015-Feb-18 21:33N 28°44' W 120°01'1313.4
2015-Feb-18 20:33N 28°52' W 120°13'1413.5
2015-Feb-18 19:31N 29°01' W 120°26'1813.4
2015-Feb-18 18:12N 29°12' W 120°42'913.5
2015-Feb-18 17:33N 29°17' W 120°49'3013.7
2015-Feb-18 15:21N 29°36' W 121°17'5914.1
2015-Feb-18 11:09N 30°12' W 122°11'2213.9
2015-Feb-18 09:33N 30°26' W 122°30'1813.6
2015-Feb-18 08:15N 30°41' W 122°42'1113.7
2015-Feb-18 07:27N 30°50' W 122°48'1314.0
2015-Feb-18 06:33N 31°01' W 122°56'1413.8
2015-Feb-18 05:33N 31°12' W 123°05'11513.7
2015-Feb-17 21:08N 32°50' W 124°18'913.7
2015-Feb-17 20:29N 32°57' W 124°23'9613.8
2015-Feb-17 13:31N 34°19' W 125°25'4513.9
2015-Feb-17 10:17N 34°57' W 125°54'1013.7
2015-Feb-17 09:32N 35°06' W 126°01'2013.5
2015-Feb-17 08:05N 35°22' W 126°14'713.4
2015-Feb-17 07:33N 35°28' W 126°18'1413.3
2015-Feb-17 06:30N 35°40' W 126°27'1613.1
2015-Feb-17 05:16N 35°54' W 126°38'913.0
2015-Feb-17 04:33N 36°01' W 126°45'5413.6
2015-Feb-17 00:33N 36°47' W 127°20'2914.0
2015-Feb-16 22:29N 37°12' W 127°40'3313.9
2015-Feb-16 20:05N 37°40' W 128°02'1313.8
2015-Feb-16 19:07N 37°51' W 128°11'813.7
2015-Feb-16 18:33N 37°59' W 128°13'1513.7
2015-Feb-16 17:28N 38°13' W 128°17'5413.7
2015-Feb-16 13:33N 39°06' W 128°33'1313.5
2015-Feb-16 12:33N 39°19' W 128°38'3313.2
2015-Feb-16 10:04N 39°50' W 128°48'713.5
2015-Feb-16 09:32N 39°58' W 128°50'2813.5
2015-Feb-16 07:27N 40°25' W 128°58'50211.1
2015-Feb-14 10:26N 48°23' W 125°24'1211.9
2015-Feb-14 09:26N 48°30' W 125°10'1011.8
2015-Feb-14 08:33N 48°31' W 124°54'1211.8
2015-Feb-14 07:33N 48°29' W 124°37'1212.1
2015-Feb-14 06:33N 48°24' W 124°20'1312.4
2015-Feb-14 05:32N 48°20' W 124°02'1211.9
2015-Feb-14 04:33N 48°17' W 123°45'1211.6
2015-Feb-14 03:33N 48°18' W 123°28'10 9.7
2015-Feb-14 02:33N 48°23' W 123°16'1212.5
2015-Feb-14 01:33N 48°36' W 123°14'1211.9
2015-Feb-14 00:33N 48°46' W 123°04'1111.4
2015-Feb-13 23:33N 48°56' W 123°12'1414.1
2015-Feb-13 22:33N 49°05' W 123°28'1313.5
2015-Feb-13 21:33N 49°13' W 123°45'6 2.0
2015-Feb-13 18:26N 49°11' W 123°54'0 0.0
2015-Feb-13 16:20N 49°11' W 123°54'0 0.0
2015-Feb-13 15:23N 49°11' W 123°54'0 0.0
2015-Feb-13 13:29N 49°11' W 123°54'0 0.0
2015-Feb-12 18:11N 49°10' W 123°54'0 0.0
2015-Feb-12 15:29N 49°10' W 123°54'0 0.1
2015-Feb-12 14:11N 49°11' W 123°54'0 0.0
2015-Feb-12 13:32N 49°11' W 123°54'0 0.0
2015-Feb-12 12:17N 49°11' W 123°54'0 0.0
2015-Feb-12 11:26N 49°11' W 123°54'0 0.0
2015-Feb-12 10:29N 49°11' W 123°54'0 0.0
2015-Feb-12 08:23N 49°11' W 123°54'0 0.0
2015-Feb-12 07:23N 49°10' W 123°54'0 0.0
2015-Feb-12 06:32N 49°11' W 123°54'0 0.0
2015-Feb-12 05:11N 49°11' W 123°54'0 0.0
2015-Feb-12 04:11N 49°11' W 123°54'0 0.0
2015-Feb-12 03:23N 49°11' W 123°54'0 0.0
2015-Feb-12 00:20N 49°11' W 123°54'0 0.0
2015-Feb-11 23:26N 49°11' W 123°54'0 0.0
2015-Feb-11 22:17N 49°11' W 123°54'0 0.0
2015-Feb-11 21:29N 49°11' W 123°54'0 0.0
2015-Feb-11 20:29N 49°11' W 123°54'0 0.0
2015-Feb-11 18:08N 49°10' W 123°54'0 0.1
2015-Feb-11 17:08N 49°10' W 123°54'0 0.1
2015-Feb-11 16:11N 49°10' W 123°54'0 0.1
2015-Feb-11 15:29N 49°10' W 123°54'  
Track history (hours):
 
Tides and Currents Weather Stations Pressure Air Temp Water Temp Dewpoint Dewpoint Depression Visibility Wind Speed Wind Dir Waves Ship Positions

MV Fenella

Last reported at 2015-Feb-20 02:29 UTC. Time now 2015-Mar-04 07:07 UTC.
Position N 24°37' W 114°08'.
Warning: this ship's position is 12 days out of date.

Length 159 m; draft 6.7 m.

Type: Cargo ship. MMSI: 636092234.

Date/timePositionNaut miles runAvg speedWind from/ knotsBaromVisibWave heightAir tempDewpointWater temp
2015-Feb-20 02:29N 24°37' W 114°08'1814.4
2015-Feb-20 01:15N 24°49' W 114°23'37013.8
2015-Feb-18 22:30N 28°36' W 119°50'1313.4
2015-Feb-18 21:33N 28°44' W 120°01'1313.4
2015-Feb-18 20:33N 28°52' W 120°13'1413.5
2015-Feb-18 19:31N 29°01' W 120°26'1813.4
2015-Feb-18 18:12N 29°12' W 120°42'913.5
2015-Feb-18 17:33N 29°17' W 120°49'3013.7
2015-Feb-18 15:21N 29°36' W 121°17'5914.1
2015-Feb-18 11:09N 30°12' W 122°11'2213.9
2015-Feb-18 09:33N 30°26' W 122°30'1813.6
2015-Feb-18 08:15N 30°41' W 122°42'1113.7
2015-Feb-18 07:27N 30°50' W 122°48'1314.0
2015-Feb-18 06:33N 31°01' W 122°56'1413.8
2015-Feb-18 05:33N 31°12' W 123°05'11513.7
2015-Feb-17 21:08N 32°50' W 124°18'913.7
2015-Feb-17 20:29N 32°57' W 124°23'9613.8
2015-Feb-17 13:31N 34°19' W 125°25'4513.9
2015-Feb-17 10:17N 34°57' W 125°54'1013.7
2015-Feb-17 09:32N 35°06' W 126°01'2013.5
2015-Feb-17 08:05N 35°22' W 126°14'713.4
2015-Feb-17 07:33N 35°28' W 126°18'1413.3
2015-Feb-17 06:30N 35°40' W 126°27'1613.1
2015-Feb-17 05:16N 35°54' W 126°38'913.0
2015-Feb-17 04:33N 36°01' W 126°45'5413.6
2015-Feb-17 00:33N 36°47' W 127°20'2914.0
2015-Feb-16 22:29N 37°12' W 127°40'3313.9
2015-Feb-16 20:05N 37°40' W 128°02'1313.8
2015-Feb-16 19:07N 37°51' W 128°11'813.7
2015-Feb-16 18:33N 37°59' W 128°13'1513.7
2015-Feb-16 17:28N 38°13' W 128°17'5413.7
2015-Feb-16 13:33N 39°06' W 128°33'1313.5
2015-Feb-16 12:33N 39°19' W 128°38'3313.2
2015-Feb-16 10:04N 39°50' W 128°48'713.5
2015-Feb-16 09:32N 39°58' W 128°50'2813.5
2015-Feb-16 07:27N 40°25' W 128°58'50211.1
2015-Feb-14 10:26N 48°23' W 125°24'1211.9
2015-Feb-14 09:26N 48°30' W 125°10'1011.8
2015-Feb-14 08:33N 48°31' W 124°54'1211.8
2015-Feb-14 07:33N 48°29' W 124°37'1212.1
2015-Feb-14 06:33N 48°24' W 124°20'1312.4
2015-Feb-14 05:32N 48°20' W 124°02'1211.9
2015-Feb-14 04:33N 48°17' W 123°45'1211.6
2015-Feb-14 03:33N 48°18' W 123°28'10 9.7
2015-Feb-14 02:33N 48°23' W 123°16'1212.5
2015-Feb-14 01:33N 48°36' W 123°14'1211.9
2015-Feb-14 00:33N 48°46' W 123°04'1111.4
2015-Feb-13 23:33N 48°56' W 123°12'1414.1
2015-Feb-13 22:33N 49°05' W 123°28'1313.5
2015-Feb-13 21:33N 49°13' W 123°45'6 2.0
2015-Feb-13 18:26N 49°11' W 123°54'0 0.0
2015-Feb-13 16:20N 49°11' W 123°54'0 0.0
2015-Feb-13 15:23N 49°11' W 123°54'0 0.0
2015-Feb-13 13:29N 49°11' W 123°54'0 0.0
2015-Feb-12 18:11N 49°10' W 123°54'0 0.0
2015-Feb-12 15:29N 49°10' W 123°54'0 0.1
2015-Feb-12 14:11N 49°11' W 123°54'0 0.0
2015-Feb-12 13:32N 49°11' W 123°54'0 0.0
2015-Feb-12 12:17N 49°11' W 123°54'0 0.0
2015-Feb-12 11:26N 49°11' W 123°54'0 0.0
2015-Feb-12 10:29N 49°11' W 123°54'0 0.0
2015-Feb-12 08:23N 49°11' W 123°54'0 0.0
2015-Feb-12 07:23N 49°10' W 123°54'0 0.0
2015-Feb-12 06:32N 49°11' W 123°54'0 0.0
2015-Feb-12 05:11N 49°11' W 123°54'0 0.0
2015-Feb-12 04:11N 49°11' W 123°54'0 0.0
2015-Feb-12 03:23N 49°11' W 123°54'0 0.0
2015-Feb-12 00:20N 49°11' W 123°54'0 0.0
2015-Feb-11 23:26N 49°11' W 123°54'0 0.0
2015-Feb-11 22:17N 49°11' W 123°54'0 0.0
2015-Feb-11 21:29N 49°11' W 123°54'0 0.0
2015-Feb-11 20:29N 49°11' W 123°54'0 0.0
2015-Feb-11 18:08N 49°10' W 123°54'0 0.1
2015-Feb-11 17:08N 49°10' W 123°54'0 0.1
2015-Feb-11 16:11N 49°10' W 123°54'0 0.1
2015-Feb-11 15:29N 49°10' W 123°54'  

Dump ship's entire track history